Time;durP1;ratioP1;P1;durP2;ratioP2;P2;SDS_P1;SDS_P2;PMS_P1;PMS_P2;Temp;Humidity;BMP_temperature;BMP_pressure;BME280_temperature;BME280_humidity;BME280_pressure;Samples;Min_cycle;Max_cycle;Signal;HPM_P1;HPM_P2
2024/02/15 00:00:43;;;;;;;61.60;30.75;;;4.30;99.90;;;;;;5080448;28;20108;-78
2024/02/15 00:03:13;;;;;;;59.58;31.35;;;4.30;99.90;;;;;;5079877;28;20025;-76
2024/02/15 00:05:39;;;;;;;52.38;29.48;;;4.30;99.90;;;;;;5088553;28;20074;-79
2024/02/15 00:08:06;;;;;;;59.63;31.45;;;4.30;99.90;;;;;;5003624;28;20022;-79
2024/02/15 00:10:31;;;;;;;61.63;31.67;;;4.30;99.90;;;;;;5078581;28;20021;-76
2024/02/15 00:12:58;;;;;;;58.67;30.63;;;4.30;99.90;;;;;;5078432;28;20026;-79
2024/02/15 00:15:24;;;;;;;56.83;28.58;;;4.30;99.90;;;;;;5069280;28;20030;-76
2024/02/15 00:17:50;;;;;;;55.47;27.15;;;4.30;99.90;;;;;;5079673;28;20022;-77
2024/02/15 00:20:17;;;;;;;52.15;26.75;;;4.30;99.90;;;;;;5080323;28;20101;-76
2024/02/15 00:22:43;;;;;;;54.50;26.75;;;4.30;99.90;;;;;;5078197;28;20041;-76
2024/02/15 00:25:11;;;;;;;59.88;28.83;;;4.30;99.90;;;;;;5076173;28;20032;-79
2024/02/15 00:27:37;;;;;;;51.63;26.50;;;4.30;99.90;;;;;;5006171;28;20022;-79
2024/02/15 00:30:07;;;;;;;48.22;25.75;;;4.30;99.90;;;;;;4999048;28;20097;-81
2024/02/15 00:32:36;;;;;;;53.80;27.35;;;4.30;99.90;;;;;;5011933;28;20014;-81
2024/02/15 00:35:02;;;;;;;56.13;27.65;;;4.20;99.90;;;;;;5078096;28;20517;-77
2024/02/15 00:37:28;;;;;;;54.90;29.38;;;4.30;99.90;;;;;;5076759;28;20071;-76
2024/02/15 00:39:53;;;;;;;84.57;39.33;;;4.30;99.90;;;;;;5010588;28;20022;-80
2024/02/15 00:42:20;;;;;;;115.90;52.60;;;4.30;99.90;;;;;;5021033;28;20058;-79
2024/02/15 00:44:46;;;;;;;133.90;56.60;;;4.30;99.90;;;;;;5079096;28;20099;-76
2024/02/15 00:47:12;;;;;;;127.20;55.50;;;4.30;99.90;;;;;;5082454;28;20010;-76
2024/02/15 00:49:38;;;;;;;95.57;43.42;;;4.40;99.90;;;;;;5000035;28;20018;-76
2024/02/15 00:52:04;;;;;;;89.20;42.00;;;4.40;99.90;;;;;;5079361;28;20022;-79
2024/02/15 00:54:30;;;;;;;87.78;40.60;;;4.40;99.90;;;;;;5011357;28;20059;-76
2024/02/15 00:56:55;;;;;;;85.63;38.88;;;4.40;99.90;;;;;;5078422;28;20479;-78
2024/02/15 00:59:21;;;;;;;84.55;37.58;;;4.40;99.90;;;;;;5076606;28;20030;-79
2024/02/15 01:01:48;;;;;;;81.18;37.40;;;4.50;99.90;;;;;;5011278;28;20018;-76
2024/02/15 01:04:13;;;;;;;88.35;37.80;;;4.50;99.90;;;;;;5076111;28;20384;-78
2024/02/15 01:06:39;;;;;;;66.95;34.40;;;4.50;99.90;;;;;;5011271;28;20035;-76
2024/02/15 01:09:05;;;;;;;69.88;36.53;;;4.50;99.90;;;;;;5011423;28;20018;-76
2024/02/15 01:11:35;;;;;;;65.70;33.78;;;4.50;99.90;;;;;;5010962;28;20498;-79
2024/02/15 01:14:01;;;;;;;73.70;33.90;;;4.50;99.90;;;;;;5011345;28;20106;-79
2024/02/15 01:16:26;;;;;;;71.82;33.92;;;4.50;99.90;;;;;;5079174;28;20068;-77
2024/02/15 01:18:52;;;;;;;81.90;38.85;;;4.50;99.90;;;;;;5011061;28;20092;-80
2024/02/15 01:21:18;;;;;;;84.43;39.95;;;4.50;99.90;;;;;;5079004;28;20034;-79
2024/02/15 01:23:46;;;;;;;87.20;42.25;;;4.60;99.90;;;;;;5078539;28;20026;-76
2024/02/15 01:26:13;;;;;;;83.35;42.08;;;4.60;99.90;;;;;;5078661;28;20018;-76
2024/02/15 01:28:42;;;;;;;77.35;36.17;;;4.60;99.90;;;;;;5011034;28;20576;-76
2024/02/15 01:31:10;;;;;;;87.65;38.60;;;4.60;99.90;;;;;;5078734;28;20034;-79
2024/02/15 01:33:36;;;;;;;80.15;37.28;;;4.60;99.90;;;;;;5078830;28;20043;-76
2024/02/15 01:36:02;;;;;;;74.55;35.33;;;4.60;99.90;;;;;;5082080;28;20018;-76
2024/02/15 01:38:28;;;;;;;73.22;37.53;;;4.60;99.90;;;;;;5005577;28;20085;-79
2024/02/15 01:40:54;;;;;;;79.93;37.15;;;4.60;99.90;;;;;;5010780;28;20053;-76
2024/02/15 01:43:19;;;;;;;75.07;36.40;;;4.60;99.90;;;;;;5078445;28;20037;-79
2024/02/15 01:45:46;;;;;;;76.80;36.97;;;4.60;99.90;;;;;;5078498;28;20032;-76
2024/02/15 01:48:14;;;;;;;76.15;35.60;;;4.60;99.90;;;;;;5010575;28;20050;-79
2024/02/15 01:50:40;;;;;;;71.65;33.72;;;4.60;99.90;;;;;;5058232;28;20022;-76
2024/02/15 01:53:08;;;;;;;63.70;33.70;;;4.60;99.90;;;;;;5078325;28;20029;-78
2024/02/15 01:55:34;;;;;;;65.70;33.17;;;4.60;99.90;;;;;;5004626;28;20034;-79
2024/02/15 01:58:02;;;;;;;65.82;31.73;;;4.60;99.90;;;;;;5074282;28;20060;-79
2024/02/15 02:00:28;;;;;;;66.85;32.03;;;4.60;99.90;;;;;;5077735;28;20041;-76
2024/02/15 02:02:59;;;;;;;64.30;31.25;;;4.60;99.90;;;;;;5008185;28;20076;-80
2024/02/15 02:05:27;;;;;;;62.33;30.42;;;4.60;99.90;;;;;;4992217;28;20034;-80
2024/02/15 02:07:53;;;;;;;62.25;32.42;;;4.60;99.90;;;;;;5010131;28;20116;-79
2024/02/15 02:10:19;;;;;;;69.28;34.53;;;4.60;99.90;;;;;;5081165;28;20060;-76
2024/02/15 02:12:45;;;;;;;76.85;37.22;;;4.60;99.90;;;;;;4991276;28;20034;-76
2024/02/15 02:15:11;;;;;;;61.45;33.55;;;4.60;99.90;;;;;;4991247;28;20023;-76
2024/02/15 02:17:37;;;;;;;62.95;33.00;;;4.60;99.90;;;;;;5077834;28;20033;-79
2024/02/15 02:20:08;;;;;;;63.30;35.25;;;4.60;99.90;;;;;;5001483;28;20014;-79
2024/02/15 02:22:35;;;;;;;63.85;31.48;;;4.60;99.90;;;;;;5078031;28;20454;-79
2024/02/15 02:25:10;;;;;;;57.78;32.67;;;4.60;99.90;;;;;;5079936;28;20080;-79
2024/02/15 02:27:36;;;;;;;60.70;32.75;;;4.70;99.90;;;;;;5077702;28;20026;-79
2024/02/15 02:30:14;;;;;;;58.00;30.83;;;4.70;99.90;;;;;;5076471;28;20025;-76
2024/02/15 02:32:41;;;;;;;57.80;31.10;;;4.70;99.90;;;;;;5001335;28;20018;-77
2024/02/15 02:35:07;;;;;;;55.83;30.00;;;4.70;99.90;;;;;;5077378;28;20022;-79
2024/02/15 02:37:35;;;;;;;63.38;32.03;;;4.70;99.90;;;;;;5004834;28;20105;-79
2024/02/15 02:40:00;;;;;;;55.38;29.67;;;4.70;99.90;;;;;;5068302;28;20475;-79
2024/02/15 02:42:26;;;;;;;57.78;30.42;;;4.80;99.90;;;;;;5009821;28;20108;-78
2024/02/15 02:44:52;;;;;;;58.40;29.83;;;4.70;99.90;;;;;;5077581;28;20018;-76
2024/02/15 02:47:17;;;;;;;59.10;30.60;;;4.70;99.90;;;;;;5008688;28;20025;-77
2024/02/15 02:49:43;;;;;;;56.13;29.92;;;4.70;99.90;;;;;;5009531;28;20419;-79
2024/02/15 02:52:09;;;;;;;56.72;30.33;;;4.80;99.90;;;;;;5077582;28;20484;-79
2024/02/15 02:54:34;;;;;;;60.20;29.63;;;4.80;99.90;;;;;;5009532;28;20063;-76
2024/02/15 02:57:00;;;;;;;53.83;29.63;;;4.80;99.90;;;;;;5077576;28;20026;-79
2024/02/15 02:59:26;;;;;;;52.85;27.15;;;4.80;99.90;;;;;;5077433;28;20029;-80
2024/02/15 03:01:51;;;;;;;54.35;28.98;;;4.80;99.90;;;;;;5077208;28;20025;-76
2024/02/15 03:04:17;;;;;;;59.92;30.80;;;4.80;99.90;;;;;;5070149;28;20034;-76
2024/02/15 03:06:43;;;;;;;53.40;28.08;;;4.80;99.90;;;;;;5009479;28;20033;-79
2024/02/15 03:09:09;;;;;;;55.58;30.38;;;4.80;99.90;;;;;;5012726;28;20025;-76
2024/02/15 03:11:36;;;;;;;62.67;32.03;;;4.80;99.90;;;;;;5013056;28;20029;-76
2024/02/15 03:14:04;;;;;;;59.20;30.73;;;4.80;99.90;;;;;;5081260;28;20037;-80
2024/02/15 03:16:36;;;;;;;59.60;31.30;;;4.80;99.90;;;;;;5004128;28;20536;-80
2024/02/15 03:19:02;;;;;;;52.17;30.40;;;4.80;99.90;;;;;;5081370;28;20018;-80
2024/02/15 03:21:28;;;;;;;56.45;30.00;;;4.90;99.90;;;;;;5012886;28;20087;-80
2024/02/15 03:23:54;;;;;;;59.65;31.77;;;4.90;99.90;;;;;;5084108;28;20026;-76
2024/02/15 03:26:40;;;;;;;54.67;30.30;;;4.90;99.90;;;;;;5080883;28;20022;-79
2024/02/15 03:29:07;;;;;;;62.00;28.85;;;4.90;99.90;;;;;;5069711;28;20017;-76
2024/02/15 03:31:36;;;;;;;58.22;30.42;;;4.80;99.90;;;;;;5009368;28;20074;-76
2024/02/15 03:34:04;;;;;;;56.88;28.48;;;4.80;99.90;;;;;;5079443;28;20018;-76
2024/02/15 03:36:30;;;;;;;45.90;25.30;;;4.80;99.90;;;;;;5003087;28;20540;-76
2024/02/15 03:38:55;;;;;;;48.78;25.42;;;4.80;99.90;;;;;;5011795;28;20050;-80
2024/02/15 03:41:22;;;;;;;51.17;26.95;;;4.80;99.90;;;;;;5082545;28;20018;-76
2024/02/15 03:43:47;;;;;;;50.08;25.65;;;4.80;99.90;;;;;;5011759;28;20034;-80
2024/02/15 03:46:14;;;;;;;45.38;24.13;;;4.80;99.90;;;;;;5098194;28;20506;-80
2024/02/15 03:48:43;;;;;;;44.08;22.88;;;4.80;99.90;;;;;;5079916;28;20133;-76
2024/02/15 03:51:09;;;;;;;42.92;24.63;;;4.80;99.90;;;;;;5006989;28;20025;-76
2024/02/15 03:53:36;;;;;;;41.30;24.30;;;4.80;99.90;;;;;;5080311;28;20030;-79
2024/02/15 03:56:03;;;;;;;45.75;25.63;;;4.90;99.90;;;;;;5084278;28;20090;-80
2024/02/15 03:58:32;;;;;;;46.95;25.50;;;4.90;99.90;;;;;;5080737;28;20468;-76
2024/02/15 04:00:58;;;;;;;40.60;24.13;;;4.90;99.90;;;;;;5078622;28;20018;-79
2024/02/15 04:03:24;;;;;;;42.92;22.38;;;4.90;99.90;;;;;;5076868;28;20114;-76
2024/02/15 04:05:50;;;;;;;40.03;22.02;;;4.90;99.90;;;;;;5003742;28;20068;-76
2024/02/15 04:08:16;;;;;;;43.65;22.33;;;4.90;99.90;;;;;;5076078;28;20039;-78
2024/02/15 04:10:42;;;;;;;41.88;22.17;;;4.90;99.90;;;;;;5079358;28;20098;-77
2024/02/15 04:13:08;;;;;;;40.30;21.75;;;4.90;99.90;;;;;;5080421;28;20052;-79
2024/02/15 04:15:34;;;;;;;40.13;22.10;;;4.90;99.90;;;;;;5080129;28;20022;-76
2024/02/15 04:18:00;;;;;;;39.53;22.05;;;4.90;99.90;;;;;;5003058;28;20105;-76
2024/02/15 04:20:26;;;;;;;37.30;21.27;;;4.90;99.90;;;;;;5010570;28;20061;-80
2024/02/15 04:22:54;;;;;;;36.83;21.10;;;4.90;99.90;;;;;;5012137;28;20466;-80
2024/02/15 04:25:22;;;;;;;39.35;20.40;;;5.00;99.90;;;;;;5011841;28;20386;-78
2024/02/15 04:27:49;;;;;;;34.97;21.60;;;5.00;99.90;;;;;;5079715;28;20556;-76
2024/02/15 04:30:15;;;;;;;38.45;21.80;;;5.00;99.90;;;;;;5003206;28;20060;-79
2024/02/15 04:32:41;;;;;;;41.63;21.65;;;5.00;99.90;;;;;;5079200;28;20429;-76
2024/02/15 04:35:07;;;;;;;41.20;23.13;;;5.00;99.90;;;;;;5079716;28;20022;-79
2024/02/15 04:37:34;;;;;;;38.78;20.65;;;5.00;99.90;;;;;;5011517;28;20022;-76
2024/02/15 04:40:33;;;;;;;37.45;20.05;;;5.00;99.90;;;;;;5011556;28;20042;-76
2024/02/15 04:42:52;;;;;;;31.80;19.80;;;5.00;99.90;;;;;;5011479;28;20046;-79
2024/02/15 04:45:18;;;;;;;40.92;21.88;;;5.00;99.90;;;;;;5077869;28;20044;-80
2024/02/15 04:47:49;;;;;;;35.22;19.08;;;5.00;99.90;;;;;;5011712;28;20030;-76
2024/02/15 04:50:18;;;;;;;31.55;18.50;;;5.00;99.90;;;;;;5012700;28;20113;-79
2024/02/15 04:52:45;;;;;;;40.20;20.30;;;5.00;99.90;;;;;;5011427;28;20467;-77
2024/02/15 04:55:11;;;;;;;33.47;19.50;;;5.00;99.90;;;;;;5076798;28;20116;-79
2024/02/15 04:57:37;;;;;;;36.97;20.05;;;5.00;99.90;;;;;;5074176;28;20030;-80
2024/02/15 05:00:11;;;;;;;38.20;20.13;;;5.10;99.90;;;;;;5066264;28;20014;-78
2024/02/15 05:02:40;;;;;;;35.25;19.92;;;5.10;99.90;;;;;;5053707;28;20034;-77
2024/02/15 05:05:09;;;;;;;40.63;19.75;;;5.10;99.90;;;;;;5034122;28;20014;-80
2024/02/15 05:07:37;;;;;;;39.03;22.58;;;5.10;99.90;;;;;;5059412;28;20044;-79
2024/02/15 05:10:06;;;;;;;43.47;22.25;;;5.10;99.90;;;;;;5079146;28;20103;-79
2024/02/15 05:12:33;;;;;;;37.72;21.40;;;5.10;99.90;;;;;;5011173;28;20487;-79
2024/02/15 05:14:59;;;;;;;38.97;20.02;;;5.10;99.90;;;;;;5002251;28;20025;-79
2024/02/15 05:17:24;;;;;;;27.45;16.50;;;5.10;99.90;;;;;;5007882;28;20018;-77
2024/02/15 05:19:50;;;;;;;36.58;18.52;;;5.10;99.90;;;;;;5003262;28;20035;-79
2024/02/15 05:22:16;;;;;;;32.42;17.55;;;5.10;99.90;;;;;;5004722;28;20030;-76
2024/02/15 05:24:41;;;;;;;34.50;19.35;;;5.10;99.90;;;;;;5029069;28;20114;-76
2024/02/15 05:27:07;;;;;;;28.38;16.88;;;5.10;99.90;;;;;;5078308;28;20033;-79
2024/02/15 05:29:36;;;;;;;31.20;19.10;;;5.10;99.90;;;;;;5078868;28;20026;-76
2024/02/15 05:32:01;;;;;;;37.17;19.65;;;5.10;99.90;;;;;;5086462;28;20490;-78
2024/02/15 05:34:29;;;;;;;38.25;20.48;;;5.10;99.90;;;;;;5082505;28;20018;-76
2024/02/15 05:40:17;;;;;;;41.55;20.42;;;5.00;99.90;;;;;;5007773;28;20122;-80
2024/02/15 05:42:45;;;;;;;33.17;20.45;;;5.10;99.90;;;;;;5087782;28;20060;-79
2024/02/15 05:45:24;;;;;;;38.92;20.25;;;5.00;99.90;;;;;;5009869;28;20519;-80
2024/02/15 05:47:51;;;;;;;41.50;23.73;;;5.10;99.90;;;;;;5005651;28;20475;-76
2024/02/15 05:50:20;;;;;;;37.22;19.58;;;5.00;99.90;;;;;;5078414;28;20026;-80
2024/02/15 05:52:46;;;;;;;31.85;20.42;;;5.10;99.90;;;;;;5010591;28;20415;-79
2024/02/15 05:55:14;;;;;;;37.25;20.05;;;5.10;99.90;;;;;;5077920;28;20022;-79
2024/02/15 05:57:39;;;;;;;34.10;17.95;;;5.10;99.90;;;;;;5078129;28;20387;-80
2024/02/15 06:00:06;;;;;;;30.20;18.10;;;5.10;99.90;;;;;;5075997;28;20029;-77
2024/02/15 06:02:32;;;;;;;33.38;18.38;;;5.10;99.90;;;;;;5071933;28;20112;-79
2024/02/15 06:05:01;;;;;;;32.67;19.75;;;5.20;99.90;;;;;;5010247;28;20109;-76
2024/02/15 06:07:28;;;;;;;29.15;18.30;;;5.20;99.90;;;;;;5078829;28;20045;-78
2024/02/15 06:09:54;;;;;;;31.92;16.75;;;5.20;99.90;;;;;;5010047;28;20029;-80
2024/02/15 06:12:20;;;;;;;28.08;16.30;;;5.20;99.90;;;;;;5055982;28;20433;-80
2024/02/15 06:14:46;;;;;;;41.28;16.15;;;5.20;99.90;;;;;;5072449;28;20099;-80
2024/02/15 06:17:11;;;;;;;24.17;13.95;;;5.30;99.90;;;;;;5003429;28;20061;-79
2024/02/15 06:19:37;;;;;;;29.60;16.98;;;5.30;99.90;;;;;;5002301;28;20062;-77
2024/02/15 06:22:04;;;;;;;31.30;16.27;;;5.30;99.90;;;;;;5002522;28;20429;-80
2024/02/15 06:24:30;;;;;;;27.75;15.07;;;5.40;99.90;;;;;;5075976;28;20034;-76
2024/02/15 06:26:59;;;;;;;27.08;16.20;;;5.40;99.90;;;;;;5076399;28;20018;-80
2024/02/15 06:40:24;;;;;;;26.33;14.98;;;5.70;99.90;;;;;;5005055;28;20063;-77
2024/02/15 06:42:50;;;;;;;27.38;15.20;;;5.70;99.90;;;;;;5009240;28;20115;-77
2024/02/15 06:45:17;;;;;;;29.50;15.38;;;5.80;99.90;;;;;;5077718;28;20022;-80
2024/02/15 06:47:44;;;;;;;22.45;14.18;;;5.90;99.90;;;;;;5074691;28;20026;-78
2024/02/15 06:50:11;;;;;;;27.40;14.93;;;5.90;99.90;;;;;;5074303;28;20026;-78
2024/02/15 06:52:38;;;;;;;27.35;15.13;;;5.90;99.90;;;;;;4997759;28;20038;-78
2024/02/15 06:55:06;;;;;;;31.90;17.80;;;6.00;99.90;;;;;;5002192;28;20037;-78
2024/02/15 06:57:35;;;;;;;30.38;14.55;;;6.00;99.90;;;;;;5080458;28;20076;-80
2024/02/15 07:00:07;;;;;;;31.25;16.42;;;6.10;99.90;;;;;;4996843;28;20026;-81
2024/02/15 07:02:33;;;;;;;32.38;16.52;;;6.10;99.90;;;;;;5059885;28;20122;-78
2024/02/15 07:04:59;;;;;;;36.53;18.40;;;6.20;99.90;;;;;;4997172;28;20022;-81
2024/02/15 07:07:25;;;;;;;44.22;19.95;;;6.20;99.90;;;;;;5060922;28;20648;-80
2024/02/15 07:09:51;;;;;;;40.92;19.90;;;6.20;99.90;;;;;;4995781;28;20023;-81
2024/02/15 07:12:18;;;;;;;40.13;19.17;;;6.30;99.90;;;;;;5068916;28;20110;-81
2024/02/15 07:14:44;;;;;;;32.72;18.95;;;6.30;99.90;;;;;;5007584;28;20383;-81
2024/02/15 07:17:10;;;;;;;30.88;17.52;;;6.30;99.90;;;;;;5005402;28;20090;-80
2024/02/15 07:19:38;;;;;;;27.73;15.82;;;6.40;99.90;;;;;;5075191;28;20518;-81
2024/02/15 07:22:03;;;;;;;29.77;17.33;;;6.40;99.90;;;;;;5007240;28;20014;-80
2024/02/15 07:24:29;;;;;;;30.17;14.50;;;6.50;99.90;;;;;;5076583;28;20045;-81
2024/02/15 07:26:55;;;;;;;21.30;12.43;;;6.50;99.90;;;;;;5068004;28;20030;-81
2024/02/15 07:29:23;;;;;;;26.48;12.80;;;6.50;99.90;;;;;;5007652;28;20029;-81
2024/02/15 07:31:49;;;;;;;23.90;12.15;;;6.60;99.90;;;;;;5075967;28;20049;-80
2024/02/15 07:34:15;;;;;;;23.23;11.73;;;6.60;99.90;;;;;;5073609;28;20021;-80
2024/02/15 07:36:42;;;;;;;23.52;13.32;;;6.70;99.90;;;;;;5075775;28;20022;-78
2024/02/15 07:39:12;;;;;;;26.88;12.15;;;6.70;99.90;;;;;;5006384;28;20057;-78
2024/02/15 07:41:38;;;;;;;23.38;12.93;;;6.80;99.90;;;;;;5069697;28;20700;-79
2024/02/15 07:44:04;;;;;;;22.63;11.45;;;6.80;99.90;;;;;;5070825;28;20050;-78
2024/02/15 07:46:29;;;;;;;20.70;12.07;;;6.80;99.90;;;;;;5003148;28;20033;-78
2024/02/15 07:48:55;;;;;;;18.70;11.20;;;6.90;99.90;;;;;;5075383;28;20034;-78
2024/02/15 07:51:22;;;;;;;16.63;9.73;;;6.90;99.90;;;;;;5073196;28;20019;-77
2024/02/15 07:53:49;;;;;;;14.55;10.45;;;7.00;99.90;;;;;;5067843;28;20026;-77
2024/02/15 07:56:16;;;;;;;18.08;9.63;;;7.00;99.90;;;;;;5078398;28;20068;-78
2024/02/15 07:58:46;;;;;;;18.88;10.15;;;7.10;99.90;;;;;;5004063;28;20108;-78
2024/02/15 08:01:13;;;;;;;22.42;10.00;;;7.10;99.90;;;;;;5072057;28;20029;-77
2024/02/15 08:03:44;;;;;;;16.98;10.18;;;7.20;99.90;;;;;;5077239;28;20034;-78
2024/02/15 08:06:12;;;;;;;18.65;10.38;;;7.30;99.90;;;;;;5067253;28;20113;-77
2024/02/15 08:08:41;;;;;;;15.10;8.98;;;7.40;99.90;;;;;;5071831;28;20071;-78
2024/02/15 08:11:14;;;;;;;16.42;10.18;;;7.50;99.90;;;;;;5076676;28;20053;-78
2024/02/15 08:13:43;;;;;;;19.90;9.85;;;7.60;99.90;;;;;;5005225;28;20387;-78
2024/02/15 08:16:09;;;;;;;14.80;9.27;;;7.70;99.90;;;;;;5079257;28;20150;-78
2024/02/15 08:18:35;;;;;;;19.10;9.50;;;7.80;99.90;;;;;;5055790;28;20038;-78
2024/02/15 08:21:02;;;;;;;18.20;9.48;;;7.80;99.90;;;;;;5076671;28;20014;-78
2024/02/15 08:23:27;;;;;;;18.90;8.68;;;7.90;99.90;;;;;;5092657;27;20034;-78
2024/02/15 08:25:53;;;;;;;18.88;9.13;;;8.00;99.90;;;;;;5000006;28;20392;-77
2024/02/15 08:28:20;;;;;;;17.38;10.18;;;8.00;99.90;;;;;;5073861;28;20117;-78
2024/02/15 08:30:46;;;;;;;18.88;8.40;;;8.00;99.90;;;;;;5060005;28;20530;-77
2024/02/15 08:33:12;;;;;;;14.35;8.73;;;8.00;99.90;;;;;;4994416;28;20101;-78
2024/02/15 08:35:40;;;;;;;16.85;8.45;;;8.10;99.90;;;;;;5082470;28;20163;-78
2024/02/15 08:38:06;;;;;;;11.48;7.72;;;8.10;99.90;;;;;;5076470;28;20069;-78
2024/02/15 08:40:32;;;;;;;13.70;8.40;;;8.20;99.90;;;;;;5088144;28;20070;-78
2024/02/15 08:42:58;;;;;;;12.70;7.45;;;8.20;99.90;;;;;;4994340;28;20077;-78
2024/02/15 08:45:24;;;;;;;13.45;8.23;;;8.20;99.90;;;;;;5059730;28;20564;-78
2024/02/15 08:47:52;;;;;;;15.07;8.45;;;8.20;99.90;;;;;;5004631;28;20471;-78
2024/02/15 08:50:19;;;;;;;11.93;7.63;;;8.20;99.90;;;;;;5004118;28;20057;-78
2024/02/15 08:52:46;;;;;;;11.07;7.53;;;8.20;99.90;;;;;;5008461;28;20018;-78
2024/02/15 08:55:15;;;;;;;11.45;8.35;;;8.30;99.90;;;;;;5085594;27;20030;-78
2024/02/15 08:57:43;;;;;;;15.05;7.85;;;8.40;99.90;;;;;;5001538;28;20025;-78
2024/02/15 09:00:13;;;;;;;14.48;8.55;;;8.60;99.90;;;;;;5068714;28;20025;-81
2024/02/15 09:02:45;;;;;;;90.05;86.05;;;8.80;99.90;;;;;;5009059;28;20037;-78
2024/02/15 09:05:14;;;;;;;11.25;7.22;;;9.00;99.90;;;;;;5076768;28;20029;-77
2024/02/15 09:07:47;;;;;;;11.52;6.90;;;9.20;99.90;;;;;;5066094;28;20027;-79
2024/02/15 09:10:13;;;;;;;;;;;9.30;99.90;;;;;;5067445;28;20098;-81
2024/02/15 09:12:40;;;;;;;11.68;6.57;;;9.50;99.90;;;;;;5075575;28;19924;-75
2024/02/15 09:15:10;;;;;;;10.35;6.90;;;9.70;99.90;;;;;;5004372;28;20036;-76
2024/02/15 09:17:39;;;;;;;10.82;7.22;;;9.80;99.90;;;;;;5070040;28;20034;-76
2024/02/15 09:20:14;;;;;;;11.93;7.18;;;9.90;97.60;;;;;;5077884;28;20014;-76
2024/02/15 09:22:44;;;;;;;9.57;5.78;;;10.00;97.60;;;;;;4997517;28;20105;-76
2024/02/15 09:25:10;;;;;;;8.57;5.47;;;10.10;96.60;;;;;;5004233;28;20026;-79
2024/02/15 09:27:36;;;;;;;11.98;5.78;;;10.30;95.40;;;;;;5094877;28;20063;-76
2024/02/15 09:30:03;;;;;;;7.82;5.80;;;10.30;92.70;;;;;;5073084;28;20539;-80
2024/02/15 09:32:28;;;;;;;9.55;6.47;;;10.30;91.30;;;;;;5004880;28;20040;-79
2024/02/15 09:34:54;;;;;;;8.57;6.65;;;10.30;90.10;;;;;;5077121;28;20026;-80
2024/02/15 09:37:19;;;;;;;9.20;6.47;;;10.30;90.30;;;;;;5091199;28;20471;-80
2024/02/15 09:39:46;;;;;;;8.40;5.95;;;10.30;89.70;;;;;;4999569;28;20081;-81
2024/02/15 09:42:11;;;;;;;10.25;6.68;;;10.30;89.90;;;;;;5009381;28;20014;-80
2024/02/15 09:44:40;;;;;;;8.15;5.45;;;10.50;90.10;;;;;;4996450;28;20468;-76
2024/02/15 09:47:06;;;;;;;41.53;22.48;;;10.40;87.20;;;;;;5004909;28;20487;-78
2024/02/15 09:49:39;;;;;;;15.00;9.82;;;10.40;87.50;;;;;;5062415;28;20026;-75
2024/02/15 09:52:11;;;;;;;10.70;7.72;;;10.60;88.90;;;;;;4995896;28;20033;-75
2024/02/15 09:54:43;;;;;;;10.27;6.00;;;10.70;88.80;;;;;;5063896;28;20044;-79
2024/02/15 09:57:10;;;;;;;8.73;6.13;;;10.80;87.80;;;;;;5076155;28;20060;-75
2024/02/15 09:59:36;;;;;;;8.00;6.70;;;10.80;85.90;;;;;;5008907;28;20105;-77
2024/02/15 10:02:02;;;;;;;16.38;8.93;;;10.80;86.20;;;;;;5010609;28;20440;-78
2024/02/15 10:04:29;;;;;;;22.15;10.75;;;10.90;86.60;;;;;;5077817;28;20495;-79
2024/02/15 10:06:54;;;;;;;8.70;6.63;;;10.90;85.60;;;;;;5078020;28;20113;-77
2024/02/15 10:09:30;;;;;;;10.88;5.75;;;10.90;84.70;;;;;;5010135;28;20054;-78
2024/02/15 10:12:00;;;;;;;9.32;4.00;;;11.00;86.20;;;;;;4997194;28;20065;-75
2024/02/15 10:14:29;;;;;;;7.28;4.68;;;11.10;85.10;;;;;;5008870;28;20476;-75
2024/02/15 10:16:56;;;;;;;9.30;6.35;;;11.00;84.20;;;;;;5007557;28;20033;-75
2024/02/15 10:19:25;;;;;;;8.88;5.10;;;11.00;83.10;;;;;;5076889;28;20388;-75
2024/02/15 10:21:55;;;;;;;8.90;4.90;;;11.10;83.30;;;;;;5075834;28;20484;-75
2024/02/15 10:24:23;;;;;;;20.35;8.15;;;11.20;83.30;;;;;;5008851;28;20521;-79
2024/02/15 10:26:49;;;;;;;13.32;6.78;;;11.30;82.90;;;;;;5010305;28;20049;-75
2024/02/15 10:29:17;;;;;;;10.30;6.15;;;11.10;81.00;;;;;;5010543;28;20026;-78
2024/02/15 10:31:56;;;;;;;9.80;6.25;;;11.00;80.80;;;;;;5094551;28;20056;-75
2024/02/15 10:34:23;;;;;;;5.32;4.45;;;11.20;82.40;;;;;;5010183;28;20049;-75
2024/02/15 10:36:49;;;;;;;16.50;7.07;;;11.20;81.40;;;;;;5003116;28;20045;-75
2024/02/15 10:39:19;;;;;;;16.65;6.93;;;11.20;80.90;;;;;;5060235;28;20054;-76
2024/02/15 10:41:52;;;;;;;15.80;9.07;;;11.20;82.40;;;;;;5075516;28;20056;-76
2024/02/15 10:44:23;;;;;;;6.75;5.30;;;11.20;81.10;;;;;;5005122;28;20038;-75
2024/02/15 10:46:51;;;;;;;23.40;9.93;;;11.20;81.00;;;;;;5051943;28;20494;-75
2024/02/15 10:49:21;;;;;;;13.35;6.50;;;11.20;81.50;;;;;;5001595;28;20029;-75
2024/02/15 10:51:54;;;;;;;11.07;6.63;;;11.30;81.60;;;;;;5009354;28;20034;-76
2024/02/15 10:54:42;;;;;;;16.05;8.95;;;11.30;81.00;;;;;;5073594;28;20064;-77
2024/02/15 10:57:10;;;;;;;12.38;5.82;;;11.30;80.80;;;;;;5066685;28;20396;-77
2024/02/15 10:59:40;;;;;;;23.50;11.48;;;11.30;80.70;;;;;;5074366;28;20488;-77
2024/02/15 11:02:31;;;;;;;22.30;15.93;;;11.30;80.30;;;;;;5006676;28;20022;-77
2024/02/15 11:05:20;;;;;;;21.85;9.15;;;11.30;80.20;;;;;;5080320;28;20483;-77
2024/02/15 11:07:46;;;;;;;11.52;5.00;;;11.30;79.80;;;;;;4997900;28;20029;-77
2024/02/15 11:10:16;;;;;;;4.22;3.28;;;11.20;80.80;;;;;;5002755;28;20022;-76
2024/02/15 11:12:46;;;;;;;16.95;10.88;;;11.30;80.30;;;;;;5007741;28;20113;-77
2024/02/15 11:15:12;;;;;;;40.55;12.05;;;11.20;79.90;;;;;;5006767;28;20026;-77
2024/02/15 11:17:40;;;;;;;27.98;8.80;;;11.20;81.10;;;;;;5006705;28;20037;-77
2024/02/15 11:20:11;;;;;;;22.00;12.27;;;11.10;80.30;;;;;;5076983;28;20044;-78
2024/02/15 11:22:38;;;;;;;32.88;16.17;;;11.10;80.80;;;;;;5003419;28;20014;-77
2024/02/15 11:25:16;;;;;;;29.92;11.35;;;11.10;81.40;;;;;;4990755;28;20030;-76
2024/02/15 11:27:42;;;;;;;12.45;5.72;;;11.00;81.30;;;;;;4997007;28;20014;-77
2024/02/15 11:30:12;;;;;;;15.73;8.85;;;11.10;81.40;;;;;;5080489;28;20041;-77
2024/02/15 11:32:44;;;;;;;24.55;8.48;;;11.10;80.50;;;;;;5066259;28;20104;-77
2024/02/15 11:35:22;;;;;;;10.30;4.82;;;11.20;80.90;;;;;;5075735;28;20058;-77
2024/02/15 11:37:48;;;;;;;43.88;23.20;;;11.30;80.80;;;;;;5003663;28;20033;-77
2024/02/15 11:40:16;;;;;;;16.65;9.93;;;11.40;79.80;;;;;;5080137;28;20065;-77
2024/02/15 11:42:46;;;;;;;7.93;3.88;;;11.50;80.70;;;;;;5079948;28;20397;-77
2024/02/15 11:45:12;;;;;;;13.63;5.05;;;11.60;80.00;;;;;;5007147;28;20034;-78
2024/02/15 11:47:42;;;;;;;8.77;5.28;;;11.70;80.00;;;;;;5069013;28;20035;-78
2024/02/15 11:50:14;;;;;;;6.90;3.97;;;11.90;79.30;;;;;;5001872;28;20034;-77
2024/02/15 11:52:42;;;;;;;4.00;2.97;;;12.10;78.40;;;;;;5004757;28;20383;-77
2024/02/15 11:55:09;;;;;;;6.32;3.60;;;12.20;76.60;;;;;;5000559;28;20102;-75
2024/02/15 11:58:02;;;;;;;10.43;5.60;;;12.30;76.40;;;;;;4992610;28;20468;-75
2024/02/15 12:19:55;;;;;;;20.60;12.03;;;12.20;77.10;;;;;;4999793;28;20033;-80
2024/02/15 12:22:45;;;;;;;39.47;20.85;;;12.10;77.20;;;;;;5009994;28;20302;-80
2024/02/15 12:25:21;;;;;;;20.58;9.75;;;12.10;77.00;;;;;;4993291;28;20049;-80
2024/02/15 12:27:52;;;;;;;23.25;10.98;;;12.10;76.90;;;;;;4997393;28;20376;-80
2024/02/15 12:30:21;;;;;;;26.58;12.35;;;12.10;77.10;;;;;;4994945;28;20484;-80
2024/02/15 12:32:47;;;;;;;37.30;15.60;;;12.00;76.60;;;;;;5009854;28;20376;-80
2024/02/15 12:35:19;;;;;;;29.77;10.60;;;12.00;78.00;;;;;;5008302;28;20038;-80
2024/02/15 12:37:46;;;;;;;22.13;11.27;;;12.00;78.10;;;;;;5073386;28;20022;-80
2024/02/15 12:40:17;;;;;;;22.92;11.52;;;11.90;77.80;;;;;;5073532;28;20153;-79
2024/02/15 12:42:52;;;;;;;34.72;18.60;;;11.90;78.10;;;;;;5077349;28;20036;-80
2024/02/15 12:45:22;;;;;;;93.53;42.83;;;11.90;78.90;;;;;;5067455;28;20430;-80
2024/02/15 12:47:51;;;;;;;74.10;23.58;;;12.00;78.90;;;;;;4998851;28;20395;-80
2024/02/15 12:50:18;;;;;;;13.18;6.97;;;12.20;78.60;;;;;;5074281;28;20034;-80
2024/02/15 12:52:47;;;;;;;16.40;7.57;;;12.20;77.50;;;;;;5091821;28;20101;-80
2024/02/15 12:55:19;;;;;;;19.95;8.73;;;12.10;76.80;;;;;;5070849;28;20029;-80
2024/02/15 12:57:49;;;;;;;11.47;6.20;;;12.10;76.70;;;;;;5072511;28;20079;-80
2024/02/15 13:00:20;;;;;;;11.73;6.45;;;12.10;77.30;;;;;;4995887;28;20273;-81
2024/02/15 13:02:50;;;;;;;9.93;6.95;;;12.10;77.20;;;;;;5072231;28;20026;-80
2024/02/15 13:05:19;;;;;;;17.25;8.50;;;12.10;77.30;;;;;;4998557;28;20014;-80
2024/02/15 13:07:47;;;;;;;72.75;38.15;;;12.00;76.70;;;;;;5064700;28;20026;-81
2024/02/15 13:10:14;;;;;;;133.35;66.50;;;11.80;76.60;;;;;;5067976;28;20039;-82
2024/02/15 13:12:41;;;;;;;134.73;50.05;;;11.80;76.90;;;;;;4995844;28;20010;-82
2024/02/15 13:15:11;;;;;;;31.02;11.95;;;11.80;78.00;;;;;;5075512;28;20049;-82